sensor_id;sensor_type;location;lat;lon;timestamp;P1;durP1;ratioP1;P2;durP2;ratioP2
18286;SDS011;9269;50.838;12.094;2024-03-22T00:01:08;5.03;;;4.23;;
18286;SDS011;9269;50.838;12.094;2024-03-22T00:03:35;5.90;;;5.10;;
18286;SDS011;9269;50.838;12.094;2024-03-22T00:06:02;6.70;;;6.00;;
18286;SDS011;9269;50.838;12.094;2024-03-22T00:08:29;7.60;;;5.83;;
18286;SDS011;9269;50.838;12.094;2024-03-22T00:10:56;8.57;;;6.10;;
18286;SDS011;9269;50.838;12.094;2024-03-22T00:13:24;7.43;;;6.47;;
18286;SDS011;9269;50.838;12.094;2024-03-22T00:15:54;7.67;;;5.93;;
18286;SDS011;9269;50.838;12.094;2024-03-22T00:21:39;6.87;;;5.70;;
18286;SDS011;9269;50.838;12.094;2024-03-22T00:24:06;7.63;;;5.87;;
18286;SDS011;9269;50.838;12.094;2024-03-22T00:26:32;6.53;;;5.50;;
18286;SDS011;9269;50.838;12.094;2024-03-22T00:29:00;5.97;;;5.30;;
18286;SDS011;9269;50.838;12.094;2024-03-22T00:31:28;9.43;;;6.43;;
18286;SDS011;9269;50.838;12.094;2024-03-22T00:33:56;7.03;;;5.67;;
18286;SDS011;9269;50.838;12.094;2024-03-22T00:36:23;6.07;;;5.10;;
18286;SDS011;9269;50.838;12.094;2024-03-22T00:38:50;6.10;;;5.20;;
18286;SDS011;9269;50.838;12.094;2024-03-22T00:41:17;6.53;;;5.83;;
18286;SDS011;9269;50.838;12.094;2024-03-22T00:43:44;6.13;;;4.97;;
18286;SDS011;9269;50.838;12.094;2024-03-22T00:46:10;5.50;;;4.80;;
18286;SDS011;9269;50.838;12.094;2024-03-22T00:48:39;6.40;;;4.73;;
18286;SDS011;9269;50.838;12.094;2024-03-22T00:51:06;5.37;;;4.60;;
18286;SDS011;9269;50.838;12.094;2024-03-22T00:53:33;5.23;;;4.50;;
18286;SDS011;9269;50.838;12.094;2024-03-22T00:56:00;4.63;;;4.23;;
18286;SDS011;9269;50.838;12.094;2024-03-22T00:58:27;4.50;;;4.07;;
18286;SDS011;9269;50.838;12.094;2024-03-22T01:00:54;5.80;;;4.60;;
18286;SDS011;9269;50.838;12.094;2024-03-22T01:03:21;7.30;;;4.80;;
18286;SDS011;9269;50.838;12.094;2024-03-22T01:05:49;6.53;;;4.90;;
18286;SDS011;9269;50.838;12.094;2024-03-22T01:08:17;6.00;;;5.20;;
18286;SDS011;9269;50.838;12.094;2024-03-22T01:10:43;6.87;;;4.30;;
18286;SDS011;9269;50.838;12.094;2024-03-22T01:13:11;5.80;;;4.17;;
18286;SDS011;9269;50.838;12.094;2024-03-22T01:15:37;5.23;;;4.43;;
18286;SDS011;9269;50.838;12.094;2024-03-22T01:18:04;5.43;;;4.43;;
18286;SDS011;9269;50.838;12.094;2024-03-22T01:20:31;6.53;;;5.00;;
18286;SDS011;9269;50.838;12.094;2024-03-22T01:23:00;6.60;;;5.40;;
18286;SDS011;9269;50.838;12.094;2024-03-22T01:25:27;5.23;;;4.57;;
18286;SDS011;9269;50.838;12.094;2024-03-22T01:27:55;6.03;;;5.13;;
18286;SDS011;9269;50.838;12.094;2024-03-22T01:30:21;5.70;;;4.83;;
18286;SDS011;9269;50.838;12.094;2024-03-22T01:32:49;5.93;;;4.83;;
18286;SDS011;9269;50.838;12.094;2024-03-22T01:35:16;8.77;;;5.30;;
18286;SDS011;9269;50.838;12.094;2024-03-22T01:37:44;5.47;;;4.53;;
18286;SDS011;9269;50.838;12.094;2024-03-22T01:40:12;5.80;;;5.10;;
18286;SDS011;9269;50.838;12.094;2024-03-22T01:42:40;6.83;;;5.07;;
18286;SDS011;9269;50.838;12.094;2024-03-22T01:45:07;6.13;;;5.30;;
18286;SDS011;9269;50.838;12.094;2024-03-22T01:47:34;6.93;;;5.27;;
18286;SDS011;9269;50.838;12.094;2024-03-22T01:50:01;8.10;;;6.03;;
18286;SDS011;9269;50.838;12.094;2024-03-22T01:52:29;8.50;;;6.23;;
18286;SDS011;9269;50.838;12.094;2024-03-22T01:54:56;10.50;;;7.87;;
18286;SDS011;9269;50.838;12.094;2024-03-22T01:57:24;8.90;;;7.47;;
18286;SDS011;9269;50.838;12.094;2024-03-22T01:59:51;10.23;;;6.73;;
18286;SDS011;9269;50.838;12.094;2024-03-22T02:02:22;10.83;;;7.87;;
18286;SDS011;9269;50.838;12.094;2024-03-22T02:04:50;8.83;;;7.03;;
18286;SDS011;9269;50.838;12.094;2024-03-22T02:07:17;12.07;;;7.20;;
18286;SDS011;9269;50.838;12.094;2024-03-22T02:09:44;9.60;;;7.70;;
18286;SDS011;9269;50.838;12.094;2024-03-22T02:12:11;11.63;;;8.33;;
18286;SDS011;9269;50.838;12.094;2024-03-22T02:14:40;11.53;;;8.37;;
18286;SDS011;9269;50.838;12.094;2024-03-22T02:17:08;13.93;;;8.20;;
18286;SDS011;9269;50.838;12.094;2024-03-22T02:19:34;11.47;;;8.33;;
18286;SDS011;9269;50.838;12.094;2024-03-22T02:22:02;10.70;;;8.07;;
18286;SDS011;9269;50.838;12.094;2024-03-22T02:24:29;15.13;;;8.83;;
18286;SDS011;9269;50.838;12.094;2024-03-22T02:26:57;13.47;;;8.47;;
18286;SDS011;9269;50.838;12.094;2024-03-22T02:29:23;11.30;;;8.30;;
18286;SDS011;9269;50.838;12.094;2024-03-22T02:31:51;11.63;;;8.87;;
18286;SDS011;9269;50.838;12.094;2024-03-22T02:34:17;10.03;;;8.80;;
18286;SDS011;9269;50.838;12.094;2024-03-22T02:36:45;11.93;;;9.60;;
18286;SDS011;9269;50.838;12.094;2024-03-22T02:39:11;12.60;;;9.17;;
18286;SDS011;9269;50.838;12.094;2024-03-22T02:41:40;16.73;;;9.60;;
18286;SDS011;9269;50.838;12.094;2024-03-22T02:44:06;10.70;;;7.63;;
18286;SDS011;9269;50.838;12.094;2024-03-22T02:46:34;9.87;;;7.60;;
18286;SDS011;9269;50.838;12.094;2024-03-22T02:49:00;9.50;;;7.20;;
18286;SDS011;9269;50.838;12.094;2024-03-22T02:51:28;9.50;;;8.07;;
18286;SDS011;9269;50.838;12.094;2024-03-22T02:53:54;9.00;;;7.13;;
18286;SDS011;9269;50.838;12.094;2024-03-22T02:56:22;8.23;;;7.03;;
18286;SDS011;9269;50.838;12.094;2024-03-22T02:58:50;10.17;;;7.67;;
18286;SDS011;9269;50.838;12.094;2024-03-22T03:01:17;14.40;;;9.17;;
18286;SDS011;9269;50.838;12.094;2024-03-22T03:03:44;12.80;;;10.20;;
18286;SDS011;9269;50.838;12.094;2024-03-22T03:06:11;15.53;;;10.60;;
18286;SDS011;9269;50.838;12.094;2024-03-22T03:08:39;14.83;;;10.13;;
18286;SDS011;9269;50.838;12.094;2024-03-22T03:11:06;10.77;;;9.27;;
18286;SDS011;9269;50.838;12.094;2024-03-22T03:13:33;11.50;;;8.17;;
18286;SDS011;9269;50.838;12.094;2024-03-22T03:16:02;10.43;;;8.37;;
18286;SDS011;9269;50.838;12.094;2024-03-22T03:18:28;10.40;;;7.50;;
18286;SDS011;9269;50.838;12.094;2024-03-22T03:20:55;8.67;;;6.73;;
18286;SDS011;9269;50.838;12.094;2024-03-22T03:23:22;8.00;;;6.30;;
18286;SDS011;9269;50.838;12.094;2024-03-22T03:25:49;7.87;;;5.90;;
18286;SDS011;9269;50.838;12.094;2024-03-22T03:28:16;7.80;;;6.27;;
18286;SDS011;9269;50.838;12.094;2024-03-22T03:30:43;6.63;;;6.00;;
18286;SDS011;9269;50.838;12.094;2024-03-22T03:33:11;7.47;;;6.20;;
18286;SDS011;9269;50.838;12.094;2024-03-22T03:35:38;6.47;;;5.60;;
18286;SDS011;9269;50.838;12.094;2024-03-22T03:38:05;6.70;;;5.57;;
18286;SDS011;9269;50.838;12.094;2024-03-22T03:40:33;7.60;;;6.40;;
18286;SDS011;9269;50.838;12.094;2024-03-22T03:43:01;6.07;;;5.47;;
18286;SDS011;9269;50.838;12.094;2024-03-22T03:45:28;6.77;;;6.03;;
18286;SDS011;9269;50.838;12.094;2024-03-22T03:47:55;7.63;;;6.37;;
18286;SDS011;9269;50.838;12.094;2024-03-22T03:50:24;7.87;;;6.20;;
18286;SDS011;9269;50.838;12.094;2024-03-22T03:52:50;6.47;;;5.73;;
18286;SDS011;9269;50.838;12.094;2024-03-22T03:55:18;7.03;;;5.93;;
18286;SDS011;9269;50.838;12.094;2024-03-22T03:57:44;6.70;;;6.00;;
18286;SDS011;9269;50.838;12.094;2024-03-22T04:00:12;6.93;;;6.23;;
18286;SDS011;9269;50.838;12.094;2024-03-22T04:02:39;6.07;;;5.47;;
18286;SDS011;9269;50.838;12.094;2024-03-22T04:05:07;8.80;;;6.10;;
18286;SDS011;9269;50.838;12.094;2024-03-22T04:07:35;6.87;;;5.70;;
18286;SDS011;9269;50.838;12.094;2024-03-22T04:10:03;6.50;;;5.60;;
18286;SDS011;9269;50.838;12.094;2024-03-22T04:12:29;6.70;;;6.00;;
18286;SDS011;9269;50.838;12.094;2024-03-22T04:14:57;8.20;;;5.97;;
18286;SDS011;9269;50.838;12.094;2024-03-22T04:17:23;6.50;;;5.40;;
18286;SDS011;9269;50.838;12.094;2024-03-22T04:19:51;5.93;;;5.30;;
18286;SDS011;9269;50.838;12.094;2024-03-22T04:22:18;7.03;;;6.00;;
18286;SDS011;9269;50.838;12.094;2024-03-22T04:24:46;7.33;;;5.97;;
18286;SDS011;9269;50.838;12.094;2024-03-22T04:27:13;6.23;;;5.53;;
18286;SDS011;9269;50.838;12.094;2024-03-22T04:29:41;7.60;;;6.10;;
18286;SDS011;9269;50.838;12.094;2024-03-22T04:32:07;9.10;;;6.37;;
18286;SDS011;9269;50.838;12.094;2024-03-22T04:34:35;8.47;;;6.30;;
18286;SDS011;9269;50.838;12.094;2024-03-22T04:37:01;8.87;;;6.27;;
18286;SDS011;9269;50.838;12.094;2024-03-22T04:39:29;7.67;;;6.37;;
18286;SDS011;9269;50.838;12.094;2024-03-22T04:41:58;6.90;;;6.20;;
18286;SDS011;9269;50.838;12.094;2024-03-22T04:44:26;7.33;;;6.57;;
18286;SDS011;9269;50.838;12.094;2024-03-22T04:46:53;10.27;;;6.67;;
18286;SDS011;9269;50.838;12.094;2024-03-22T04:49:20;7.23;;;6.40;;
18286;SDS011;9269;50.838;12.094;2024-03-22T04:51:48;7.07;;;6.37;;
18286;SDS011;9269;50.838;12.094;2024-03-22T04:54:14;8.73;;;6.40;;
18286;SDS011;9269;50.838;12.094;2024-03-22T04:56:42;8.40;;;7.07;;
18286;SDS011;9269;50.838;12.094;2024-03-22T04:59:10;8.83;;;7.00;;
18286;SDS011;9269;50.838;12.094;2024-03-22T05:01:37;10.03;;;6.43;;
18286;SDS011;9269;50.838;12.094;2024-03-22T05:04:04;6.60;;;5.87;;
18286;SDS011;9269;50.838;12.094;2024-03-22T05:06:31;7.37;;;6.10;;
18286;SDS011;9269;50.838;12.094;2024-03-22T05:08:57;7.07;;;5.83;;
18286;SDS011;9269;50.838;12.094;2024-03-22T05:11:25;7.60;;;5.20;;
18286;SDS011;9269;50.838;12.094;2024-03-22T05:13:52;8.37;;;6.47;;
18286;SDS011;9269;50.838;12.094;2024-03-22T05:16:21;6.57;;;5.60;;
18286;SDS011;9269;50.838;12.094;2024-03-22T05:18:48;7.10;;;6.40;;
18286;SDS011;9269;50.838;12.094;2024-03-22T05:21:16;7.77;;;6.67;;
18286;SDS011;9269;50.838;12.094;2024-03-22T05:23:42;7.67;;;6.40;;
18286;SDS011;9269;50.838;12.094;2024-03-22T05:26:10;7.03;;;5.90;;
18286;SDS011;9269;50.838;12.094;2024-03-22T05:28:36;7.23;;;6.53;;
18286;SDS011;9269;50.838;12.094;2024-03-22T05:31:04;8.93;;;6.50;;
18286;SDS011;9269;50.838;12.094;2024-03-22T05:33:32;9.53;;;6.83;;
18286;SDS011;9269;50.838;12.094;2024-03-22T05:35:59;9.77;;;7.10;;
18286;SDS011;9269;50.838;12.094;2024-03-22T05:38:25;8.50;;;6.90;;
18286;SDS011;9269;50.838;12.094;2024-03-22T05:40:53;7.60;;;6.50;;
18286;SDS011;9269;50.838;12.094;2024-03-22T05:43:19;7.63;;;6.73;;
18286;SDS011;9269;50.838;12.094;2024-03-22T05:45:47;10.97;;;7.97;;
18286;SDS011;9269;50.838;12.094;2024-03-22T05:48:14;8.60;;;7.13;;
18286;SDS011;9269;50.838;12.094;2024-03-22T05:50:43;9.70;;;7.80;;
18286;SDS011;9269;50.838;12.094;2024-03-22T05:53:10;9.53;;;6.60;;
18286;SDS011;9269;50.838;12.094;2024-03-22T05:55:37;7.90;;;6.60;;
18286;SDS011;9269;50.838;12.094;2024-03-22T05:58:04;11.60;;;8.03;;
18286;SDS011;9269;50.838;12.094;2024-03-22T06:00:31;11.30;;;7.67;;
18286;SDS011;9269;50.838;12.094;2024-03-22T06:02:58;9.23;;;6.83;;
18286;SDS011;9269;50.838;12.094;2024-03-22T06:05:26;10.87;;;8.00;;
18286;SDS011;9269;50.838;12.094;2024-03-22T06:07:54;9.00;;;7.30;;
18286;SDS011;9269;50.838;12.094;2024-03-22T06:10:21;9.03;;;8.13;;
18286;SDS011;9269;50.838;12.094;2024-03-22T06:12:48;9.70;;;7.83;;
18286;SDS011;9269;50.838;12.094;2024-03-22T06:15:16;8.13;;;7.03;;
18286;SDS011;9269;50.838;12.094;2024-03-22T06:17:42;9.53;;;7.37;;
18286;SDS011;9269;50.838;12.094;2024-03-22T06:20:12;8.00;;;7.20;;
18286;SDS011;9269;50.838;12.094;2024-03-22T06:22:39;8.90;;;7.33;;
18286;SDS011;9269;50.838;12.094;2024-03-22T06:25:08;8.23;;;7.40;;
18286;SDS011;9269;50.838;12.094;2024-03-22T06:27:34;7.50;;;6.80;;
18286;SDS011;9269;50.838;12.094;2024-03-22T06:30:02;8.27;;;7.40;;
18286;SDS011;9269;50.838;12.094;2024-03-22T06:32:29;8.27;;;6.80;;
18286;SDS011;9269;50.838;12.094;2024-03-22T06:34:56;8.63;;;7.53;;
18286;SDS011;9269;50.838;12.094;2024-03-22T06:37:23;9.00;;;6.93;;
18286;SDS011;9269;50.838;12.094;2024-03-22T06:39:50;7.40;;;6.70;;
18286;SDS011;9269;50.838;12.094;2024-03-22T06:42:18;7.73;;;6.93;;
18286;SDS011;9269;50.838;12.094;2024-03-22T06:44:45;9.40;;;7.70;;
18286;SDS011;9269;50.838;12.094;2024-03-22T06:47:12;9.10;;;7.53;;
18286;SDS011;9269;50.838;12.094;2024-03-22T06:49:39;9.33;;;7.50;;
18286;SDS011;9269;50.838;12.094;2024-03-22T06:52:07;8.87;;;7.70;;
18286;SDS011;9269;50.838;12.094;2024-03-22T06:54:34;10.80;;;7.20;;
18286;SDS011;9269;50.838;12.094;2024-03-22T06:57:01;10.87;;;7.97;;
18286;SDS011;9269;50.838;12.094;2024-03-22T06:59:30;10.20;;;7.60;;
18286;SDS011;9269;50.838;12.094;2024-03-22T07:01:57;8.20;;;7.00;;
18286;SDS011;9269;50.838;12.094;2024-03-22T07:04:24;8.07;;;7.17;;
18286;SDS011;9269;50.838;12.094;2024-03-22T07:06:51;10.63;;;7.87;;
18286;SDS011;9269;50.838;12.094;2024-03-22T07:09:18;10.60;;;8.10;;
18286;SDS011;9269;50.838;12.094;2024-03-22T07:11:45;10.77;;;8.00;;
18286;SDS011;9269;50.838;12.094;2024-03-22T07:14:14;9.23;;;8.33;;
18286;SDS011;9269;50.838;12.094;2024-03-22T07:16:42;9.80;;;7.70;;
18286;SDS011;9269;50.838;12.094;2024-03-22T07:19:09;10.87;;;7.90;;
18286;SDS011;9269;50.838;12.094;2024-03-22T07:21:36;10.30;;;7.40;;
18286;SDS011;9269;50.838;12.094;2024-03-22T07:24:04;8.73;;;7.37;;
18286;SDS011;9269;50.838;12.094;2024-03-22T07:26:31;10.40;;;7.93;;
18286;SDS011;9269;50.838;12.094;2024-03-22T07:28:58;9.33;;;7.27;;
18286;SDS011;9269;50.838;12.094;2024-03-22T07:31:24;10.03;;;7.13;;
18286;SDS011;9269;50.838;12.094;2024-03-22T07:33:54;10.57;;;8.40;;
18286;SDS011;9269;50.838;12.094;2024-03-22T07:36:21;9.60;;;7.67;;
18286;SDS011;9269;50.838;12.094;2024-03-22T07:38:49;9.07;;;7.43;;
18286;SDS011;9269;50.838;12.094;2024-03-22T07:41:16;10.63;;;8.00;;
18286;SDS011;9269;50.838;12.094;2024-03-22T07:43:43;10.27;;;8.07;;
18286;SDS011;9269;50.838;12.094;2024-03-22T07:46:09;11.27;;;8.27;;
18286;SDS011;9269;50.838;12.094;2024-03-22T07:48:37;10.10;;;8.07;;
18286;SDS011;9269;50.838;12.094;2024-03-22T07:51:05;9.30;;;8.10;;
18286;SDS011;9269;50.838;12.094;2024-03-22T07:53:32;11.30;;;8.90;;
18286;SDS011;9269;50.838;12.094;2024-03-22T07:55:59;10.10;;;8.23;;
18286;SDS011;9269;50.838;12.094;2024-03-22T07:58:27;10.90;;;7.83;;
18286;SDS011;9269;50.838;12.094;2024-03-22T08:00:53;12.57;;;8.43;;
18286;SDS011;9269;50.838;12.094;2024-03-22T08:03:21;9.80;;;8.33;;
18286;SDS011;9269;50.838;12.094;2024-03-22T08:05:49;10.80;;;8.00;;
18286;SDS011;9269;50.838;12.094;2024-03-22T08:08:18;10.97;;;8.80;;
18286;SDS011;9269;50.838;12.094;2024-03-22T08:10:45;9.97;;;7.93;;
18286;SDS011;9269;50.838;12.094;2024-03-22T08:13:13;10.90;;;8.80;;
18286;SDS011;9269;50.838;12.094;2024-03-22T08:15:40;10.80;;;8.87;;
18286;SDS011;9269;50.838;12.094;2024-03-22T08:18:09;12.23;;;9.13;;
18286;SDS011;9269;50.838;12.094;2024-03-22T08:20:35;12.90;;;8.83;;
18286;SDS011;9269;50.838;12.094;2024-03-22T08:23:05;11.67;;;9.80;;
18286;SDS011;9269;50.838;12.094;2024-03-22T08:25:33;13.30;;;9.97;;
18286;SDS011;9269;50.838;12.094;2024-03-22T08:28:00;12.70;;;9.93;;
18286;SDS011;9269;50.838;12.094;2024-03-22T08:30:27;12.50;;;9.53;;
18286;SDS011;9269;50.838;12.094;2024-03-22T08:32:55;13.87;;;9.80;;
18286;SDS011;9269;50.838;12.094;2024-03-22T08:35:21;12.50;;;9.63;;
18286;SDS011;9269;50.838;12.094;2024-03-22T08:37:49;13.90;;;10.07;;
18286;SDS011;9269;50.838;12.094;2024-03-22T08:40:15;13.40;;;10.67;;
18286;SDS011;9269;50.838;12.094;2024-03-22T08:42:44;13.73;;;9.47;;
18286;SDS011;9269;50.838;12.094;2024-03-22T08:45:10;12.23;;;9.13;;
18286;SDS011;9269;50.838;12.094;2024-03-22T08:47:38;12.87;;;9.33;;
18286;SDS011;9269;50.838;12.094;2024-03-22T08:50:06;14.27;;;10.80;;
18286;SDS011;9269;50.838;12.094;2024-03-22T08:52:34;15.67;;;10.70;;
18286;SDS011;9269;50.838;12.094;2024-03-22T08:55:01;15.77;;;10.60;;
18286;SDS011;9269;50.838;12.094;2024-03-22T08:57:30;15.00;;;11.20;;
18286;SDS011;9269;50.838;12.094;2024-03-22T08:59:58;14.20;;;11.80;;
18286;SDS011;9269;50.838;12.094;2024-03-22T09:02:27;16.10;;;12.37;;
18286;SDS011;9269;50.838;12.094;2024-03-22T09:04:54;16.53;;;12.63;;
18286;SDS011;9269;50.838;12.094;2024-03-22T09:07:21;15.13;;;11.10;;
18286;SDS011;9269;50.838;12.094;2024-03-22T09:09:49;18.97;;;11.40;;
18286;SDS011;9269;50.838;12.094;2024-03-22T09:12:17;17.13;;;11.17;;
18286;SDS011;9269;50.838;12.094;2024-03-22T09:14:44;14.63;;;10.93;;
18286;SDS011;9269;50.838;12.094;2024-03-22T09:17:13;16.13;;;11.33;;
18286;SDS011;9269;50.838;12.094;2024-03-22T09:19:40;15.37;;;11.63;;
18286;SDS011;9269;50.838;12.094;2024-03-22T09:22:07;17.83;;;11.80;;
18286;SDS011;9269;50.838;12.094;2024-03-22T09:24:33;15.97;;;11.33;;
18286;SDS011;9269;50.838;12.094;2024-03-22T09:27:01;17.33;;;10.90;;
18286;SDS011;9269;50.838;12.094;2024-03-22T09:29:30;16.87;;;11.47;;
18286;SDS011;9269;50.838;12.094;2024-03-22T09:31:58;14.93;;;10.97;;
18286;SDS011;9269;50.838;12.094;2024-03-22T09:34:26;18.17;;;12.17;;
18286;SDS011;9269;50.838;12.094;2024-03-22T09:36:54;15.97;;;11.37;;
18286;SDS011;9269;50.838;12.094;2024-03-22T09:39:21;15.77;;;11.37;;
18286;SDS011;9269;50.838;12.094;2024-03-22T09:41:50;16.47;;;12.17;;
18286;SDS011;9269;50.838;12.094;2024-03-22T09:44:18;15.73;;;11.63;;
18286;SDS011;9269;50.838;12.094;2024-03-22T09:46:46;15.13;;;11.53;;
18286;SDS011;9269;50.838;12.094;2024-03-22T09:49:14;17.60;;;12.80;;
18286;SDS011;9269;50.838;12.094;2024-03-22T09:51:43;15.03;;;11.53;;
18286;SDS011;9269;50.838;12.094;2024-03-22T09:54:11;16.40;;;12.37;;
18286;SDS011;9269;50.838;12.094;2024-03-22T09:56:38;16.57;;;12.53;;
18286;SDS011;9269;50.838;12.094;2024-03-22T09:59:06;16.60;;;12.17;;
18286;SDS011;9269;50.838;12.094;2024-03-22T10:01:33;16.77;;;12.70;;
18286;SDS011;9269;50.838;12.094;2024-03-22T10:04:01;15.70;;;12.17;;
18286;SDS011;9269;50.838;12.094;2024-03-22T10:06:28;16.63;;;12.47;;
18286;SDS011;9269;50.838;12.094;2024-03-22T10:08:59;15.00;;;11.53;;
18286;SDS011;9269;50.838;12.094;2024-03-22T10:11:26;15.37;;;11.97;;
18286;SDS011;9269;50.838;12.094;2024-03-22T10:13:53;20.93;;;15.07;;
18286;SDS011;9269;50.838;12.094;2024-03-22T10:16:21;18.27;;;13.50;;
18286;SDS011;9269;50.838;12.094;2024-03-22T10:18:48;16.70;;;11.20;;
18286;SDS011;9269;50.838;12.094;2024-03-22T10:21:17;15.37;;;12.03;;
18286;SDS011;9269;50.838;12.094;2024-03-22T10:23:44;16.53;;;12.30;;
18286;SDS011;9269;50.838;12.094;2024-03-22T10:26:15;14.37;;;11.20;;
18286;SDS011;9269;50.838;12.094;2024-03-22T10:28:46;14.87;;;11.37;;
18286;SDS011;9269;50.838;12.094;2024-03-22T10:31:13;15.97;;;12.00;;
18286;SDS011;9269;50.838;12.094;2024-03-22T10:33:41;17.63;;;12.20;;
18286;SDS011;9269;50.838;12.094;2024-03-22T10:36:10;17.37;;;11.47;;
18286;SDS011;9269;50.838;12.094;2024-03-22T10:38:39;15.27;;;11.80;;
18286;SDS011;9269;50.838;12.094;2024-03-22T10:41:06;15.10;;;10.37;;
18286;SDS011;9269;50.838;12.094;2024-03-22T10:43:36;13.67;;;10.50;;
18286;SDS011;9269;50.838;12.094;2024-03-22T10:46:03;12.83;;;9.70;;
18286;SDS011;9269;50.838;12.094;2024-03-22T10:48:32;12.63;;;10.10;;
18286;SDS011;9269;50.838;12.094;2024-03-22T10:50:59;15.10;;;10.63;;
18286;SDS011;9269;50.838;12.094;2024-03-22T10:53:28;14.80;;;11.10;;
18286;SDS011;9269;50.838;12.094;2024-03-22T10:55:57;15.87;;;11.27;;
18286;SDS011;9269;50.838;12.094;2024-03-22T10:58:29;15.23;;;10.93;;
18286;SDS011;9269;50.838;12.094;2024-03-22T11:00:57;13.47;;;10.03;;
18286;SDS011;9269;50.838;12.094;2024-03-22T11:03:25;13.63;;;10.30;;
18286;SDS011;9269;50.838;12.094;2024-03-22T11:05:53;12.20;;;9.37;;
18286;SDS011;9269;50.838;12.094;2024-03-22T11:08:25;12.00;;;9.53;;
18286;SDS011;9269;50.838;12.094;2024-03-22T11:10:52;11.53;;;8.77;;
18286;SDS011;9269;50.838;12.094;2024-03-22T11:13:20;11.87;;;9.13;;
18286;SDS011;9269;50.838;12.094;2024-03-22T11:15:47;11.30;;;9.27;;
18286;SDS011;9269;50.838;12.094;2024-03-22T11:18:16;13.63;;;9.37;;
18286;SDS011;9269;50.838;12.094;2024-03-22T11:20:43;13.70;;;10.93;;
18286;SDS011;9269;50.838;12.094;2024-03-22T11:23:12;11.17;;;8.80;;
18286;SDS011;9269;50.838;12.094;2024-03-22T11:25:39;17.17;;;12.03;;
18286;SDS011;9269;50.838;12.094;2024-03-22T11:28:07;15.60;;;11.93;;
18286;SDS011;9269;50.838;12.094;2024-03-22T11:30:33;14.37;;;11.07;;
18286;SDS011;9269;50.838;12.094;2024-03-22T11:33:01;12.13;;;10.10;;
18286;SDS011;9269;50.838;12.094;2024-03-22T11:35:29;13.63;;;9.90;;
18286;SDS011;9269;50.838;12.094;2024-03-22T11:37:57;12.57;;;9.40;;
18286;SDS011;9269;50.838;12.094;2024-03-22T11:40:25;12.63;;;9.83;;
18286;SDS011;9269;50.838;12.094;2024-03-22T11:42:53;12.23;;;10.87;;
18286;SDS011;9269;50.838;12.094;2024-03-22T11:45:21;13.97;;;10.20;;
18286;SDS011;9269;50.838;12.094;2024-03-22T11:47:51;14.77;;;11.37;;
18286;SDS011;9269;50.838;12.094;2024-03-22T11:50:17;12.03;;;9.60;;
18286;SDS011;9269;50.838;12.094;2024-03-22T11:52:46;14.97;;;11.17;;
18286;SDS011;9269;50.838;12.094;2024-03-22T11:55:14;20.40;;;11.83;;
18286;SDS011;9269;50.838;12.094;2024-03-22T11:57:41;16.93;;;11.67;;
18286;SDS011;9269;50.838;12.094;2024-03-22T12:00:14;17.87;;;12.67;;
18286;SDS011;9269;50.838;12.094;2024-03-22T12:02:44;14.43;;;9.37;;
18286;SDS011;9269;50.838;12.094;2024-03-22T12:05:11;15.37;;;11.53;;
18286;SDS011;9269;50.838;12.094;2024-03-22T12:07:39;17.13;;;12.37;;
18286;SDS011;9269;50.838;12.094;2024-03-22T12:10:08;14.93;;;11.40;;
18286;SDS011;9269;50.838;12.094;2024-03-22T12:12:35;14.03;;;11.10;;
18286;SDS011;9269;50.838;12.094;2024-03-22T12:15:02;15.00;;;11.47;;
18286;SDS011;9269;50.838;12.094;2024-03-22T12:17:31;17.43;;;12.47;;
18286;SDS011;9269;50.838;12.094;2024-03-22T12:19:59;15.63;;;12.17;;
18286;SDS011;9269;50.838;12.094;2024-03-22T12:22:26;17.57;;;12.97;;
18286;SDS011;9269;50.838;12.094;2024-03-22T12:24:54;14.07;;;11.47;;
18286;SDS011;9269;50.838;12.094;2024-03-22T12:27:22;13.07;;;10.50;;
18286;SDS011;9269;50.838;12.094;2024-03-22T12:29:49;13.93;;;10.03;;
18286;SDS011;9269;50.838;12.094;2024-03-22T12:32:16;16.70;;;12.63;;
18286;SDS011;9269;50.838;12.094;2024-03-22T12:34:43;17.37;;;11.97;;
18286;SDS011;9269;50.838;12.094;2024-03-22T12:37:10;15.50;;;12.00;;
18286;SDS011;9269;50.838;12.094;2024-03-22T12:39:36;14.67;;;11.93;;
18286;SDS011;9269;50.838;12.094;2024-03-22T12:42:04;14.70;;;12.37;;
18286;SDS011;9269;50.838;12.094;2024-03-22T12:44:33;15.50;;;11.90;;
18286;SDS011;9269;50.838;12.094;2024-03-22T12:47:00;16.87;;;12.43;;
18286;SDS011;9269;50.838;12.094;2024-03-22T12:49:27;15.27;;;12.77;;
18286;SDS011;9269;50.838;12.094;2024-03-22T12:51:55;13.70;;;11.97;;
18286;SDS011;9269;50.838;12.094;2024-03-22T12:54:23;15.07;;;12.17;;
18286;SDS011;9269;50.838;12.094;2024-03-22T12:56:51;13.60;;;12.20;;
18286;SDS011;9269;50.838;12.094;2024-03-22T12:59:17;13.30;;;11.87;;
18286;SDS011;9269;50.838;12.094;2024-03-22T13:01:46;13.63;;;11.77;;
18286;SDS011;9269;50.838;12.094;2024-03-22T13:04:13;14.97;;;12.23;;
18286;SDS011;9269;50.838;12.094;2024-03-22T13:06:40;16.77;;;12.93;;
18286;SDS011;9269;50.838;12.094;2024-03-22T13:09:07;14.63;;;12.23;;
18286;SDS011;9269;50.838;12.094;2024-03-22T13:11:35;15.93;;;12.80;;
18286;SDS011;9269;50.838;12.094;2024-03-22T13:14:02;12.97;;;11.00;;
18286;SDS011;9269;50.838;12.094;2024-03-22T13:16:29;14.13;;;11.27;;
18286;SDS011;9269;50.838;12.094;2024-03-22T13:19:00;11.60;;;10.10;;
18286;SDS011;9269;50.838;12.094;2024-03-22T13:21:28;12.80;;;10.80;;
18286;SDS011;9269;50.838;12.094;2024-03-22T13:23:54;11.87;;;10.37;;
18286;SDS011;9269;50.838;12.094;2024-03-22T13:26:22;12.87;;;10.70;;
18286;SDS011;9269;50.838;12.094;2024-03-22T13:28:48;12.57;;;9.80;;
18286;SDS011;9269;50.838;12.094;2024-03-22T13:31:16;13.77;;;10.43;;
18286;SDS011;9269;50.838;12.094;2024-03-22T13:33:42;14.83;;;11.03;;
18286;SDS011;9269;50.838;12.094;2024-03-22T13:36:11;24.60;;;16.30;;
18286;SDS011;9269;50.838;12.094;2024-03-22T13:38:37;19.30;;;14.77;;
18286;SDS011;9269;50.838;12.094;2024-03-22T13:41:05;18.87;;;13.93;;
18286;SDS011;9269;50.838;12.094;2024-03-22T13:43:32;23.43;;;17.63;;
18286;SDS011;9269;50.838;12.094;2024-03-22T13:46:00;25.00;;;17.53;;
18286;SDS011;9269;50.838;12.094;2024-03-22T13:48:27;21.50;;;15.80;;
18286;SDS011;9269;50.838;12.094;2024-03-22T13:50:54;16.90;;;14.40;;
18286;SDS011;9269;50.838;12.094;2024-03-22T13:53:22;17.60;;;13.63;;
18286;SDS011;9269;50.838;12.094;2024-03-22T13:55:50;21.77;;;15.97;;
18286;SDS011;9269;50.838;12.094;2024-03-22T13:58:18;20.60;;;15.67;;
18286;SDS011;9269;50.838;12.094;2024-03-22T14:00:46;21.00;;;15.73;;
18286;SDS011;9269;50.838;12.094;2024-03-22T14:03:12;17.53;;;13.77;;
18286;SDS011;9269;50.838;12.094;2024-03-22T14:05:40;18.90;;;15.23;;
18286;SDS011;9269;50.838;12.094;2024-03-22T14:08:06;21.17;;;15.10;;
18286;SDS011;9269;50.838;12.094;2024-03-22T14:10:35;19.17;;;14.97;;
18286;SDS011;9269;50.838;12.094;2024-03-22T14:13:02;20.73;;;15.10;;
18286;SDS011;9269;50.838;12.094;2024-03-22T14:15:33;23.50;;;16.27;;
18286;SDS011;9269;50.838;12.094;2024-03-22T14:18:01;20.40;;;15.17;;
18286;SDS011;9269;50.838;12.094;2024-03-22T14:20:29;16.13;;;13.83;;
18286;SDS011;9269;50.838;12.094;2024-03-22T14:22:55;19.40;;;14.73;;
18286;SDS011;9269;50.838;12.094;2024-03-22T14:25:23;16.80;;;13.77;;
18286;SDS011;9269;50.838;12.094;2024-03-22T14:27:51;16.60;;;13.40;;
18286;SDS011;9269;50.838;12.094;2024-03-22T14:30:18;15.80;;;12.57;;
18286;SDS011;9269;50.838;12.094;2024-03-22T14:32:45;17.43;;;13.10;;
18286;SDS011;9269;50.838;12.094;2024-03-22T14:35:12;17.80;;;13.37;;
18286;SDS011;9269;50.838;12.094;2024-03-22T14:37:39;17.90;;;12.67;;
18286;SDS011;9269;50.838;12.094;2024-03-22T14:40:07;15.27;;;12.83;;